Airfield :
LOGIN :

Register | Disclaimer

   EN    FR    IT 

 










Legend :    VFR   Marginal VFR   IFR   Intensive IFR   Very Intensive IFR
Visi :
Ceiling :
>= 8 km
>= 3000ft
5 to 8 km
1000 to 3000 ft
1500m to 5 km
500 to 1000 ft
800 to 1500m
200 to 500 ft
< 800m
< 200 ft
Symbols :   Thunderstorms  Fog  Heavy snow  Heavy precipitations  Wind > 20 kt
SIGMETs :     Misc.  Thunderstorms  Icing  Turbulence  Mountain Waves  Volcanic Ashes






- Airport Elevation : 102 ft
- IATA code : EXT


EGTE - Exeter

CURRENT METAR :
  • 152250Z 16015KT 6000 RA SCT008 SCT020 13/12 Q1001

EXPIRED METARs :
  • 152220Z 17014KT 9999 -RA SCT010 SCT025 14/13 Q1002
  • 152150Z 18016KT 9999 -RA SCT008 SCT025 14/13 Q1002
  • 152120Z 17012KT 9999 RA SCT012 BKN025 14/13 Q1003
  • 152050Z 17011KT 9999 -RA SCT012 BKN025 13/12 Q1003
  • 152020Z 17009KT 9999 -RA SCT012 BKN030 14/13 Q1003

TAF TAF EGTE
Valid from the 15 at 21:00 until the 16 at 03:00 UTC


151954Z 1521/1603 20008KT 9999 SCT030
TEMPO 1521/1603 9000 -RA BKN010
PROB40
TEMPO 1521/1603 18018G28KT 4000 RA BKN008



MET'MAP, your aeronautical weather chart ! - Copyright ORBIFLY December 2007 - Disclaimer

ORBIFLY MET'MAP TEAM :

Programming & Development : Alexandra Zaïnal
Concept & Development : Baudouin d'Aumeries
Co-Development & Prog : Marc-Olivier Méhu
Technical & hardware support : Manuel Goepfert

Contact : metmap@orbifly.com




SOURCES & CREDITS :

   NOAA